sensor_id;sensor_type;location;lat;lon;timestamp;pressure;altitude;pressure_sealevel;temperature;humidity
39954;BME280;25631;51.516;-0.470;2023-11-19T00:00:26;100551.69;;;10.42;42.98
39954;BME280;25631;51.516;-0.470;2023-11-19T00:03:02;100554.20;;;10.09;42.81
39954;BME280;25631;51.516;-0.470;2023-11-19T00:05:39;100545.53;;;10.68;42.69
39954;BME280;25631;51.516;-0.470;2023-11-19T00:08:15;100543.49;;;10.71;42.74
39954;BME280;25631;51.516;-0.470;2023-11-19T00:10:52;100541.52;;;10.63;42.73
39954;BME280;25631;51.516;-0.470;2023-11-19T00:13:28;100543.76;;;10.17;42.86
39954;BME280;25631;51.516;-0.470;2023-11-19T00:16:06;100546.74;;;10.59;42.80
39954;BME280;25631;51.516;-0.470;2023-11-19T00:18:42;100551.70;;;10.40;42.91
39954;BME280;25631;51.516;-0.470;2023-11-19T00:21:19;100543.22;;;10.52;42.87
39954;BME280;25631;51.516;-0.470;2023-11-19T00:23:55;100555.18;;;10.48;42.72
39954;BME280;25631;51.516;-0.470;2023-11-19T00:26:32;100552.51;;;10.24;42.84
39954;BME280;25631;51.516;-0.470;2023-11-19T00:29:08;100546.82;;;10.67;42.70
39954;BME280;25631;51.516;-0.470;2023-11-19T00:31:44;100549.38;;;10.64;42.78
39954;BME280;25631;51.516;-0.470;2023-11-19T00:34:21;100553.91;;;10.20;42.74
39954;BME280;25631;51.516;-0.470;2023-11-19T00:36:57;100554.52;;;10.38;42.89
39954;BME280;25631;51.516;-0.470;2023-11-19T00:39:33;100546.18;;;10.60;42.76
39954;BME280;25631;51.516;-0.470;2023-11-19T00:42:10;100539.95;;;10.17;42.96
39954;BME280;25631;51.516;-0.470;2023-11-19T00:44:46;100539.07;;;10.30;42.95
39954;BME280;25631;51.516;-0.470;2023-11-19T00:47:22;100543.81;;;10.08;43.27
39954;BME280;25631;51.516;-0.470;2023-11-19T00:49:59;100537.54;;;10.07;43.20
39954;BME280;25631;51.516;-0.470;2023-11-19T00:52:35;100540.52;;;10.14;43.23
39954;BME280;25631;51.516;-0.470;2023-11-19T00:55:11;100545.78;;;10.05;43.39
39954;BME280;25631;51.516;-0.470;2023-11-19T00:57:48;100545.67;;;10.07;43.50
39954;BME280;25631;51.516;-0.470;2023-11-19T01:00:25;100542.22;;;9.64;43.50
39954;BME280;25631;51.516;-0.470;2023-11-19T01:03:01;100544.94;;;9.66;43.77
39954;BME280;25631;51.516;-0.470;2023-11-19T01:05:38;100538.66;;;9.53;44.07
39954;BME280;25631;51.516;-0.470;2023-11-19T01:08:14;100529.75;;;9.82;43.75
39954;BME280;25631;51.516;-0.470;2023-11-19T01:10:50;100523.88;;;9.89;43.60
39954;BME280;25631;51.516;-0.470;2023-11-19T01:13:27;100520.70;;;9.38;43.99
39954;BME280;25631;51.516;-0.470;2023-11-19T01:16:04;100514.85;;;9.44;44.13
39954;BME280;25631;51.516;-0.470;2023-11-19T01:18:40;100513.74;;;9.63;43.67
39954;BME280;25631;51.516;-0.470;2023-11-19T01:21:17;100517.32;;;9.83;43.45
39954;BME280;25631;51.516;-0.470;2023-11-19T01:23:53;100522.85;;;9.31;43.88
39954;BME280;25631;51.516;-0.470;2023-11-19T01:26:30;100522.14;;;9.63;43.51
39954;BME280;25631;51.516;-0.470;2023-11-19T01:29:06;100524.02;;;9.32;43.70
39954;BME280;25631;51.516;-0.470;2023-11-19T01:31:43;100523.46;;;9.48;43.55
39954;BME280;25631;51.516;-0.470;2023-11-19T01:34:19;100524.67;;;9.63;43.45
39954;BME280;25631;51.516;-0.470;2023-11-19T01:36:56;100529.62;;;9.35;43.51
39954;BME280;25631;51.516;-0.470;2023-11-19T01:39:33;100525.93;;;9.25;43.63
39954;BME280;25631;51.516;-0.470;2023-11-19T01:42:09;100518.65;;;9.66;43.44
39954;BME280;25631;51.516;-0.470;2023-11-19T01:44:56;100511.39;;;9.19;43.58
39954;BME280;25631;51.516;-0.470;2023-11-19T01:47:34;100514.05;;;9.14;43.73
39954;BME280;25631;51.516;-0.470;2023-11-19T01:50:11;100514.11;;;9.14;43.54
39954;BME280;25631;51.516;-0.470;2023-11-19T01:52:47;100503.17;;;9.30;43.33
39954;BME280;25631;51.516;-0.470;2023-11-19T01:55:25;100510.42;;;9.33;43.45
39954;BME280;25631;51.516;-0.470;2023-11-19T01:58:03;100522.85;;;9.58;43.37
39954;BME280;25631;51.516;-0.470;2023-11-19T02:00:40;100532.09;;;9.43;43.15
39954;BME280;25631;51.516;-0.470;2023-11-19T02:03:16;100530.31;;;9.31;43.29
39954;BME280;25631;51.516;-0.470;2023-11-19T02:05:53;100528.14;;;9.69;43.21
39954;BME280;25631;51.516;-0.470;2023-11-19T02:08:30;100526.89;;;9.54;43.03
39954;BME280;25631;51.516;-0.470;2023-11-19T02:11:06;100529.65;;;9.71;42.85
39954;BME280;25631;51.516;-0.470;2023-11-19T02:13:43;100536.34;;;9.66;42.82
39954;BME280;25631;51.516;-0.470;2023-11-19T02:16:19;100536.19;;;9.80;42.67
39954;BME280;25631;51.516;-0.470;2023-11-19T02:18:56;100531.50;;;9.55;42.73
39954;BME280;25631;51.516;-0.470;2023-11-19T02:21:32;100529.47;;;9.73;42.77
39954;BME280;25631;51.516;-0.470;2023-11-19T02:24:11;100526.57;;;9.90;42.66
39954;BME280;25631;51.516;-0.470;2023-11-19T02:26:52;100536.69;;;9.28;42.84
39954;BME280;25631;51.516;-0.470;2023-11-19T02:29:34;100532.30;;;9.68;42.57
39954;BME280;25631;51.516;-0.470;2023-11-19T02:32:10;100533.78;;;9.74;42.62
39954;BME280;25631;51.516;-0.470;2023-11-19T02:34:46;100534.28;;;9.71;42.58
39954;BME280;25631;51.516;-0.470;2023-11-19T02:37:23;100524.94;;;9.62;42.52
39954;BME280;25631;51.516;-0.470;2023-11-19T02:39:59;100517.78;;;9.65;42.46
39954;BME280;25631;51.516;-0.470;2023-11-19T02:42:35;100515.55;;;9.77;42.29
39954;BME280;25631;51.516;-0.470;2023-11-19T02:45:12;100499.80;;;9.94;42.32
39954;BME280;25631;51.516;-0.470;2023-11-19T02:47:48;100496.26;;;9.29;42.82
39954;BME280;25631;51.516;-0.470;2023-11-19T02:50:25;100491.43;;;9.59;42.44
39954;BME280;25631;51.516;-0.470;2023-11-19T02:53:01;100491.38;;;9.76;42.30
39954;BME280;25631;51.516;-0.470;2023-11-19T02:55:38;100498.89;;;9.92;42.21
39954;BME280;25631;51.516;-0.470;2023-11-19T02:58:14;100494.85;;;9.68;42.37
39954;BME280;25631;51.516;-0.470;2023-11-19T03:00:50;100498.10;;;9.69;42.50
39954;BME280;25631;51.516;-0.470;2023-11-19T03:03:30;100489.12;;;9.51;42.59
39954;BME280;25631;51.516;-0.470;2023-11-19T03:06:07;100496.80;;;9.73;42.63
39954;BME280;25631;51.516;-0.470;2023-11-19T03:08:43;100485.96;;;9.50;42.70
39954;BME280;25631;51.516;-0.470;2023-11-19T03:11:20;100488.46;;;9.54;42.55
39954;BME280;25631;51.516;-0.470;2023-11-19T03:13:56;100478.90;;;9.63;42.42
39954;BME280;25631;51.516;-0.470;2023-11-19T03:16:33;100481.94;;;9.67;42.61
39954;BME280;25631;51.516;-0.470;2023-11-19T03:19:09;100487.58;;;9.36;42.79
39954;BME280;25631;51.516;-0.470;2023-11-19T03:21:46;100483.40;;;9.52;42.87
39954;BME280;25631;51.516;-0.470;2023-11-19T03:24:22;100489.97;;;8.91;43.12
39954;BME280;25631;51.516;-0.470;2023-11-19T03:26:58;100497.19;;;9.02;43.15
39954;BME280;25631;51.516;-0.470;2023-11-19T03:29:35;100501.45;;;9.06;43.09
39954;BME280;25631;51.516;-0.470;2023-11-19T03:32:11;100499.39;;;9.30;42.84
39954;BME280;25631;51.516;-0.470;2023-11-19T03:34:47;100483.88;;;9.18;42.88
39954;BME280;25631;51.516;-0.470;2023-11-19T03:37:24;100493.55;;;9.36;42.97
39954;BME280;25631;51.516;-0.470;2023-11-19T03:40:00;100492.24;;;9.39;42.87
39954;BME280;25631;51.516;-0.470;2023-11-19T03:42:36;100483.23;;;9.56;42.72
39954;BME280;25631;51.516;-0.470;2023-11-19T03:45:13;100487.64;;;9.31;42.88
39954;BME280;25631;51.516;-0.470;2023-11-19T03:47:50;100482.24;;;9.30;43.10
39954;BME280;25631;51.516;-0.470;2023-11-19T03:50:26;100475.13;;;9.35;43.21
39954;BME280;25631;51.516;-0.470;2023-11-19T03:53:03;100478.92;;;9.43;43.02
39954;BME280;25631;51.516;-0.470;2023-11-19T03:55:39;100483.76;;;9.51;42.76
39954;BME280;25631;51.516;-0.470;2023-11-19T03:58:16;100488.62;;;9.42;43.07
39954;BME280;25631;51.516;-0.470;2023-11-19T04:00:52;100493.27;;;9.60;43.03
39954;BME280;25631;51.516;-0.470;2023-11-19T04:03:28;100497.50;;;9.16;43.20
39954;BME280;25631;51.516;-0.470;2023-11-19T04:06:05;100498.46;;;9.31;43.03
39954;BME280;25631;51.516;-0.470;2023-11-19T04:08:42;100503.23;;;9.34;43.20
39954;BME280;25631;51.516;-0.470;2023-11-19T04:11:18;100493.13;;;9.02;43.64
39954;BME280;25631;51.516;-0.470;2023-11-19T04:13:55;100490.04;;;9.74;43.20
39954;BME280;25631;51.516;-0.470;2023-11-19T04:16:31;100484.95;;;9.38;43.39
39954;BME280;25631;51.516;-0.470;2023-11-19T04:19:07;100487.26;;;9.04;43.40
39954;BME280;25631;51.516;-0.470;2023-11-19T04:21:44;100486.60;;;9.07;43.38
39954;BME280;25631;51.516;-0.470;2023-11-19T04:24:21;100491.17;;;9.61;43.25
39954;BME280;25631;51.516;-0.470;2023-11-19T04:26:57;100486.96;;;9.45;43.20
39954;BME280;25631;51.516;-0.470;2023-11-19T04:29:33;100488.20;;;9.46;43.20
39954;BME280;25631;51.516;-0.470;2023-11-19T04:32:10;100490.73;;;9.25;43.31
39954;BME280;25631;51.516;-0.470;2023-11-19T04:34:46;100493.27;;;9.07;43.46
39954;BME280;25631;51.516;-0.470;2023-11-19T04:37:22;100484.94;;;9.19;43.42
39954;BME280;25631;51.516;-0.470;2023-11-19T04:39:59;100489.13;;;8.92;44.00
39954;BME280;25631;51.516;-0.470;2023-11-19T04:42:35;100486.18;;;9.23;43.52
39954;BME280;25631;51.516;-0.470;2023-11-19T04:45:12;100486.02;;;9.21;43.43
39954;BME280;25631;51.516;-0.470;2023-11-19T04:47:48;100489.05;;;9.59;43.24
39954;BME280;25631;51.516;-0.470;2023-11-19T04:50:24;100495.37;;;9.38;43.51
39954;BME280;25631;51.516;-0.470;2023-11-19T04:53:01;100494.12;;;9.43;43.46
39954;BME280;25631;51.516;-0.470;2023-11-19T04:55:37;100494.25;;;9.34;43.43
39954;BME280;25631;51.516;-0.470;2023-11-19T04:58:13;100497.43;;;9.66;43.24
39954;BME280;25631;51.516;-0.470;2023-11-19T05:00:50;100497.98;;;9.43;43.29
39954;BME280;25631;51.516;-0.470;2023-11-19T05:03:26;100492.18;;;9.45;43.13
39954;BME280;25631;51.516;-0.470;2023-11-19T05:06:03;100485.59;;;9.34;43.12
39954;BME280;25631;51.516;-0.470;2023-11-19T05:08:39;100481.75;;;9.52;43.11
39954;BME280;25631;51.516;-0.470;2023-11-19T05:11:15;100470.84;;;9.50;43.11
39954;BME280;25631;51.516;-0.470;2023-11-19T05:13:52;100464.38;;;9.21;43.26
39954;BME280;25631;51.516;-0.470;2023-11-19T05:16:28;100463.94;;;9.11;43.20
39954;BME280;25631;51.516;-0.470;2023-11-19T05:19:05;100464.73;;;9.49;43.02
39954;BME280;25631;51.516;-0.470;2023-11-19T05:21:42;100472.39;;;9.28;43.01
39954;BME280;25631;51.516;-0.470;2023-11-19T05:24:18;100467.15;;;9.13;43.15
39954;BME280;25631;51.516;-0.470;2023-11-19T05:26:55;100469.85;;;9.04;43.20
39954;BME280;25631;51.516;-0.470;2023-11-19T05:29:31;100460.39;;;9.47;43.02
39954;BME280;25631;51.516;-0.470;2023-11-19T05:32:07;100465.18;;;9.56;43.04
39954;BME280;25631;51.516;-0.470;2023-11-19T05:34:44;100465.04;;;9.73;42.76
39954;BME280;25631;51.516;-0.470;2023-11-19T05:37:20;100466.89;;;9.53;42.69
39954;BME280;25631;51.516;-0.470;2023-11-19T05:39:57;100469.27;;;9.45;42.76
39954;BME280;25631;51.516;-0.470;2023-11-19T05:42:33;100467.90;;;9.71;42.61
39954;BME280;25631;51.516;-0.470;2023-11-19T05:45:11;100469.03;;;9.31;42.74
39954;BME280;25631;51.516;-0.470;2023-11-19T05:47:48;100475.48;;;9.52;42.56
39954;BME280;25631;51.516;-0.470;2023-11-19T05:50:24;100472.29;;;9.91;42.21
39954;BME280;25631;51.516;-0.470;2023-11-19T05:53:00;100477.30;;;9.90;42.22
39954;BME280;25631;51.516;-0.470;2023-11-19T05:55:37;100477.85;;;9.86;42.31
39954;BME280;25631;51.516;-0.470;2023-11-19T05:58:13;100483.53;;;10.16;41.96
39954;BME280;25631;51.516;-0.470;2023-11-19T06:00:49;100476.36;;;10.10;41.99
39954;BME280;25631;51.516;-0.470;2023-11-19T06:03:26;100481.65;;;10.03;42.12
39954;BME280;25631;51.516;-0.470;2023-11-19T06:06:03;100477.63;;;10.17;41.92
39954;BME280;25631;51.516;-0.470;2023-11-19T06:08:39;100479.07;;;10.23;41.83
39954;BME280;25631;51.516;-0.470;2023-11-19T06:11:16;100477.94;;;10.17;41.86
39954;BME280;25631;51.516;-0.470;2023-11-19T06:13:52;100469.64;;;10.29;41.72
39954;BME280;25631;51.516;-0.470;2023-11-19T06:16:29;100471.32;;;10.15;41.82
39954;BME280;25631;51.516;-0.470;2023-11-19T06:19:05;100467.13;;;10.10;41.77
39954;BME280;25631;51.516;-0.470;2023-11-19T06:21:41;100469.58;;;10.08;41.71
39954;BME280;25631;51.516;-0.470;2023-11-19T06:24:18;100461.13;;;10.01;41.80
39954;BME280;25631;51.516;-0.470;2023-11-19T06:26:54;100472.24;;;9.37;42.33
39954;BME280;25631;51.516;-0.470;2023-11-19T06:29:31;100466.64;;;9.98;41.79
39954;BME280;25631;51.516;-0.470;2023-11-19T06:32:07;100472.78;;;9.86;41.69
39954;BME280;25631;51.516;-0.470;2023-11-19T06:34:44;100470.09;;;9.88;41.61
39954;BME280;25631;51.516;-0.470;2023-11-19T06:37:20;100474.19;;;10.01;41.42
39954;BME280;25631;51.516;-0.470;2023-11-19T06:39:57;100476.11;;;9.88;41.37
39954;BME280;25631;51.516;-0.470;2023-11-19T06:42:33;100470.35;;;9.88;41.35
39954;BME280;25631;51.516;-0.470;2023-11-19T06:45:10;100467.95;;;9.65;41.45
39954;BME280;25631;51.516;-0.470;2023-11-19T06:47:46;100465.31;;;9.59;41.51
39954;BME280;25631;51.516;-0.470;2023-11-19T06:50:22;100461.15;;;9.43;41.54
39954;BME280;25631;51.516;-0.470;2023-11-19T06:52:59;100460.09;;;9.53;41.68
39954;BME280;25631;51.516;-0.470;2023-11-19T06:55:35;100467.81;;;9.15;41.92
39954;BME280;25631;51.516;-0.470;2023-11-19T06:58:11;100464.91;;;9.24;41.58
39954;BME280;25631;51.516;-0.470;2023-11-19T07:00:48;100455.41;;;9.53;41.55
39954;BME280;25631;51.516;-0.470;2023-11-19T07:03:24;100451.20;;;9.32;41.29
39954;BME280;25631;51.516;-0.470;2023-11-19T07:06:01;100451.25;;;9.57;41.27
39954;BME280;25631;51.516;-0.470;2023-11-19T07:08:37;100444.87;;;9.26;41.07
39954;BME280;25631;51.516;-0.470;2023-11-19T07:11:14;100444.39;;;9.30;41.13
39954;BME280;25631;51.516;-0.470;2023-11-19T07:13:50;100444.43;;;9.42;40.99
39954;BME280;25631;51.516;-0.470;2023-11-19T07:16:27;100448.53;;;9.30;40.94
39954;BME280;25631;51.516;-0.470;2023-11-19T07:19:03;100451.76;;;9.09;40.91
39954;BME280;25631;51.516;-0.470;2023-11-19T07:21:41;100447.24;;;9.30;40.75
39954;BME280;25631;51.516;-0.470;2023-11-19T07:24:18;100449.70;;;9.01;40.84
39954;BME280;25631;51.516;-0.470;2023-11-19T07:26:54;100451.96;;;8.85;40.77
39954;BME280;25631;51.516;-0.470;2023-11-19T07:29:30;100451.35;;;8.89;40.67
39954;BME280;25631;51.516;-0.470;2023-11-19T07:32:07;100461.42;;;9.48;40.45
39954;BME280;25631;51.516;-0.470;2023-11-19T07:34:43;100461.34;;;9.00;40.46
39954;BME280;25631;51.516;-0.470;2023-11-19T07:37:20;100460.52;;;9.43;40.21
39954;BME280;25631;51.516;-0.470;2023-11-19T07:39:56;100458.27;;;8.93;40.35
39954;BME280;25631;51.516;-0.470;2023-11-19T07:42:33;100455.35;;;8.88;40.33
39954;BME280;25631;51.516;-0.470;2023-11-19T07:45:10;100451.88;;;9.30;40.21
39954;BME280;25631;51.516;-0.470;2023-11-19T07:47:46;100451.41;;;9.28;40.30
39954;BME280;25631;51.516;-0.470;2023-11-19T07:50:22;100455.25;;;9.22;40.48
39954;BME280;25631;51.516;-0.470;2023-11-19T07:52:59;100456.61;;;8.94;40.52
39954;BME280;25631;51.516;-0.470;2023-11-19T07:55:35;100455.34;;;9.19;40.47
39954;BME280;25631;51.516;-0.470;2023-11-19T07:58:12;100462.36;;;9.03;40.69
39954;BME280;25631;51.516;-0.470;2023-11-19T08:00:48;100469.98;;;8.92;40.52
39954;BME280;25631;51.516;-0.470;2023-11-19T08:03:24;100459.92;;;8.79;40.56
39954;BME280;25631;51.516;-0.470;2023-11-19T08:06:01;100462.38;;;9.22;40.44
39954;BME280;25631;51.516;-0.470;2023-11-19T08:08:38;100464.56;;;9.33;40.37
39954;BME280;25631;51.516;-0.470;2023-11-19T08:11:14;100459.75;;;9.34;40.38
39954;BME280;25631;51.516;-0.470;2023-11-19T08:13:50;100465.43;;;9.65;40.17
39954;BME280;25631;51.516;-0.470;2023-11-19T08:16:27;100475.09;;;9.47;40.28
39954;BME280;25631;51.516;-0.470;2023-11-19T08:19:03;100474.85;;;9.29;40.48
39954;BME280;25631;51.516;-0.470;2023-11-19T08:21:40;100479.72;;;9.42;40.50
39954;BME280;25631;51.516;-0.470;2023-11-19T08:24:16;100468.28;;;8.85;40.94
39954;BME280;25631;51.516;-0.470;2023-11-19T08:26:52;100473.01;;;8.58;41.35
39954;BME280;25631;51.516;-0.470;2023-11-19T08:29:29;100466.44;;;9.23;40.69
39954;BME280;25631;51.516;-0.470;2023-11-19T08:32:06;100467.83;;;9.24;40.67
39954;BME280;25631;51.516;-0.470;2023-11-19T08:34:43;100479.54;;;9.40;40.78
39954;BME280;25631;51.516;-0.470;2023-11-19T08:37:19;100480.10;;;8.99;40.89
39954;BME280;25631;51.516;-0.470;2023-11-19T08:39:56;100480.58;;;9.48;40.77
39954;BME280;25631;51.516;-0.470;2023-11-19T08:42:32;100486.75;;;9.18;40.93
39954;BME280;25631;51.516;-0.470;2023-11-19T08:45:09;100488.43;;;9.60;40.70
39954;BME280;25631;51.516;-0.470;2023-11-19T08:47:46;100495.36;;;9.74;40.78
39954;BME280;25631;51.516;-0.470;2023-11-19T08:50:22;100497.60;;;9.70;40.76
39954;BME280;25631;51.516;-0.470;2023-11-19T08:52:59;100500.97;;;9.86;40.75
39954;BME280;25631;51.516;-0.470;2023-11-19T08:55:35;100502.15;;;9.83;40.62
39954;BME280;25631;51.516;-0.470;2023-11-19T08:58:12;100511.46;;;9.65;40.98
39954;BME280;25631;51.516;-0.470;2023-11-19T09:00:48;100504.25;;;10.01;40.98
39954;BME280;25631;51.516;-0.470;2023-11-19T09:03:25;100504.92;;;9.90;41.24
39954;BME280;25631;51.516;-0.470;2023-11-19T09:06:01;100506.81;;;9.90;41.29
39954;BME280;25631;51.516;-0.470;2023-11-19T09:08:38;100506.05;;;9.94;41.13
39954;BME280;25631;51.516;-0.470;2023-11-19T09:11:14;100509.68;;;9.85;40.99
39954;BME280;25631;51.516;-0.470;2023-11-19T09:13:51;100505.92;;;9.89;41.03
39954;BME280;25631;51.516;-0.470;2023-11-19T09:16:27;100510.05;;;9.87;40.91
39954;BME280;25631;51.516;-0.470;2023-11-19T09:19:03;100507.23;;;10.00;40.45
39954;BME280;25631;51.516;-0.470;2023-11-19T09:21:40;100514.09;;;10.46;40.29
39954;BME280;25631;51.516;-0.470;2023-11-19T09:24:16;100516.38;;;10.30;40.27
39954;BME280;25631;51.516;-0.470;2023-11-19T09:26:53;100511.21;;;9.77;40.52
39954;BME280;25631;51.516;-0.470;2023-11-19T09:29:32;100505.17;;;10.27;40.24
39954;BME280;25631;51.516;-0.470;2023-11-19T09:32:08;100496.43;;;9.84;40.56
39954;BME280;25631;51.516;-0.470;2023-11-19T09:34:48;100490.39;;;10.07;40.31
39954;BME280;25631;51.516;-0.470;2023-11-19T09:37:24;100497.80;;;10.45;40.13
39954;BME280;25631;51.516;-0.470;2023-11-19T09:40:00;100495.69;;;10.87;40.19
39954;BME280;25631;51.516;-0.470;2023-11-19T09:42:43;100492.08;;;10.33;40.18
39954;BME280;25631;51.516;-0.470;2023-11-19T09:45:21;100497.14;;;10.49;40.11
39954;BME280;25631;51.516;-0.470;2023-11-19T09:47:58;100496.64;;;10.42;40.43
39954;BME280;25631;51.516;-0.470;2023-11-19T09:50:37;100491.45;;;10.48;40.38
39954;BME280;25631;51.516;-0.470;2023-11-19T09:53:14;100488.92;;;10.61;40.34
39954;BME280;25631;51.516;-0.470;2023-11-19T09:55:51;100488.54;;;10.64;40.47
39954;BME280;25631;51.516;-0.470;2023-11-19T09:58:29;100481.21;;;10.72;40.69
39954;BME280;25631;51.516;-0.470;2023-11-19T10:01:05;100479.80;;;10.69;40.50
39954;BME280;25631;51.516;-0.470;2023-11-19T10:03:42;100479.50;;;10.65;40.76
39954;BME280;25631;51.516;-0.470;2023-11-19T10:06:20;100470.49;;;10.72;40.69
39954;BME280;25631;51.516;-0.470;2023-11-19T10:08:56;100474.14;;;10.89;40.55
39954;BME280;25631;51.516;-0.470;2023-11-19T10:11:34;100477.14;;;10.76;40.48
39954;BME280;25631;51.516;-0.470;2023-11-19T10:14:10;100479.88;;;11.31;40.46
39954;BME280;25631;51.516;-0.470;2023-11-19T10:16:47;100473.58;;;10.76;40.09
39954;BME280;25631;51.516;-0.470;2023-11-19T10:19:24;100470.43;;;10.92;39.99
39954;BME280;25631;51.516;-0.470;2023-11-19T10:22:04;100462.55;;;10.48;39.86
39954;BME280;25631;51.516;-0.470;2023-11-19T10:24:40;100470.20;;;11.15;39.56
39954;BME280;25631;51.516;-0.470;2023-11-19T10:27:17;100467.38;;;10.85;39.15
39954;BME280;25631;51.516;-0.470;2023-11-19T10:29:53;100471.10;;;10.95;39.03
39954;BME280;25631;51.516;-0.470;2023-11-19T10:32:30;100463.67;;;10.71;39.10
39954;BME280;25631;51.516;-0.470;2023-11-19T10:35:07;100461.96;;;11.26;38.91
39954;BME280;25631;51.516;-0.470;2023-11-19T10:37:43;100462.52;;;11.23;38.63
39954;BME280;25631;51.516;-0.470;2023-11-19T10:40:20;100461.47;;;11.15;38.46
39954;BME280;25631;51.516;-0.470;2023-11-19T10:43:02;100458.17;;;11.09;38.17
39954;BME280;25631;51.516;-0.470;2023-11-19T10:45:39;100462.50;;;11.30;38.08
39954;BME280;25631;51.516;-0.470;2023-11-19T10:48:15;100463.19;;;11.08;38.20
39954;BME280;25631;51.516;-0.470;2023-11-19T10:50:53;100460.72;;;11.32;37.72
39954;BME280;25631;51.516;-0.470;2023-11-19T10:53:30;100467.61;;;10.82;37.68
39954;BME280;25631;51.516;-0.470;2023-11-19T10:56:11;100469.12;;;11.55;37.70
39954;BME280;25631;51.516;-0.470;2023-11-19T10:58:51;100471.52;;;10.74;37.72
39954;BME280;25631;51.516;-0.470;2023-11-19T11:01:33;100461.71;;;11.14;37.25
39954;BME280;25631;51.516;-0.470;2023-11-19T11:04:14;100457.17;;;11.71;37.12
39954;BME280;25631;51.516;-0.470;2023-11-19T11:06:51;100453.23;;;11.52;37.19
39954;BME280;25631;51.516;-0.470;2023-11-19T11:09:27;100456.41;;;11.25;37.36
39954;BME280;25631;51.516;-0.470;2023-11-19T11:12:06;100459.32;;;11.41;37.23
39954;BME280;25631;51.516;-0.470;2023-11-19T11:14:44;100452.94;;;11.24;37.23
39954;BME280;25631;51.516;-0.470;2023-11-19T11:17:24;100464.67;;;11.46;37.31
39954;BME280;25631;51.516;-0.470;2023-11-19T11:20:05;100459.79;;;11.34;37.57
39954;BME280;25631;51.516;-0.470;2023-11-19T11:22:52;100453.55;;;11.40;37.53
39954;BME280;25631;51.516;-0.470;2023-11-19T11:25:39;100463.92;;;11.26;37.79
39954;BME280;25631;51.516;-0.470;2023-11-19T11:28:28;100473.60;;;10.77;38.67
39954;BME280;25631;51.516;-0.470;2023-11-19T11:31:19;100451.61;;;11.30;38.36
39954;BME280;25631;51.516;-0.470;2023-11-19T11:34:13;100453.29;;;11.45;38.64
39954;BME280;25631;51.516;-0.470;2023-11-19T11:37:06;100445.88;;;11.67;38.48
39954;BME280;25631;51.516;-0.470;2023-11-19T11:39:47;100433.44;;;11.21;38.83
39954;BME280;25631;51.516;-0.470;2023-11-19T11:42:39;100430.70;;;11.00;38.69
39954;BME280;25631;51.516;-0.470;2023-11-19T11:45:15;100433.55;;;11.53;38.70
39954;BME280;25631;51.516;-0.470;2023-11-19T11:48:10;100431.84;;;11.72;38.57
39954;BME280;25631;51.516;-0.470;2023-11-19T11:50:51;100435.07;;;11.47;38.67
39954;BME280;25631;51.516;-0.470;2023-11-19T11:53:30;100419.79;;;11.30;38.57
39954;BME280;25631;51.516;-0.470;2023-11-19T11:56:07;100427.58;;;11.61;38.87
39954;BME280;25631;51.516;-0.470;2023-11-19T11:58:46;100418.99;;;10.95;38.85
39954;BME280;25631;51.516;-0.470;2023-11-19T12:01:22;100428.06;;;11.29;38.85
39954;BME280;25631;51.516;-0.470;2023-11-19T12:03:58;100428.26;;;11.76;38.87
39954;BME280;25631;51.516;-0.470;2023-11-19T12:06:36;100426.35;;;11.25;39.00
39954;BME280;25631;51.516;-0.470;2023-11-19T12:09:12;100426.24;;;11.30;38.98
39954;BME280;25631;51.516;-0.470;2023-11-19T12:11:49;100421.77;;;11.75;38.82
39954;BME280;25631;51.516;-0.470;2023-11-19T12:15:00;100419.64;;;11.27;39.29
39954;BME280;25631;51.516;-0.470;2023-11-19T12:17:41;100423.32;;;11.45;39.18
39954;BME280;25631;51.516;-0.470;2023-11-19T12:20:19;100421.61;;;11.59;39.12
39954;BME280;25631;51.516;-0.470;2023-11-19T12:22:56;100419.90;;;11.13;39.10
39954;BME280;25631;51.516;-0.470;2023-11-19T12:25:34;100417.54;;;12.14;38.90
39954;BME280;25631;51.516;-0.470;2023-11-19T12:28:12;100412.61;;;11.80;38.72
39954;BME280;25631;51.516;-0.470;2023-11-19T12:30:49;100405.72;;;11.56;38.87
39954;BME280;25631;51.516;-0.470;2023-11-19T12:33:25;100404.70;;;11.80;38.82
39954;BME280;25631;51.516;-0.470;2023-11-19T12:36:02;100401.29;;;11.49;38.90
39954;BME280;25631;51.516;-0.470;2023-11-19T12:38:39;100404.26;;;11.69;38.66
39954;BME280;25631;51.516;-0.470;2023-11-19T12:41:15;100399.82;;;11.78;38.79
39954;BME280;25631;51.516;-0.470;2023-11-19T12:43:51;100389.72;;;11.68;38.81
39954;BME280;25631;51.516;-0.470;2023-11-19T12:46:28;100389.35;;;11.66;38.52
39954;BME280;25631;51.516;-0.470;2023-11-19T12:49:04;100384.09;;;12.26;38.54
39954;BME280;25631;51.516;-0.470;2023-11-19T12:51:40;100379.98;;;11.72;38.49
39954;BME280;25631;51.516;-0.470;2023-11-19T12:54:17;100386.29;;;12.04;38.22
39954;BME280;25631;51.516;-0.470;2023-11-19T12:56:53;100382.23;;;11.97;38.16
39954;BME280;25631;51.516;-0.470;2023-11-19T12:59:30;100380.73;;;11.66;38.30
39954;BME280;25631;51.516;-0.470;2023-11-19T13:02:07;100375.81;;;12.08;38.31
39954;BME280;25631;51.516;-0.470;2023-11-19T13:04:43;100373.69;;;11.55;38.32
39954;BME280;25631;51.516;-0.470;2023-11-19T13:07:21;100366.56;;;11.80;38.31
39954;BME280;25631;51.516;-0.470;2023-11-19T13:10:01;100378.52;;;11.93;38.22
39954;BME280;25631;51.516;-0.470;2023-11-19T13:12:38;100376.11;;;12.00;38.18
39954;BME280;25631;51.516;-0.470;2023-11-19T13:15:30;100365.85;;;12.11;38.29
39954;BME280;25631;51.516;-0.470;2023-11-19T13:18:06;100362.90;;;12.00;38.20
39954;BME280;25631;51.516;-0.470;2023-11-19T13:20:43;100370.53;;;11.96;38.39
39954;BME280;25631;51.516;-0.470;2023-11-19T13:23:19;100367.61;;;12.15;38.44
39954;BME280;25631;51.516;-0.470;2023-11-19T13:25:56;100365.53;;;11.87;38.71
39954;BME280;25631;51.516;-0.470;2023-11-19T13:28:32;100368.31;;;11.32;39.15
39954;BME280;25631;51.516;-0.470;2023-11-19T13:31:09;100353.08;;;11.55;39.17
39954;BME280;25631;51.516;-0.470;2023-11-19T13:33:45;100357.56;;;11.54;39.15
39954;BME280;25631;51.516;-0.470;2023-11-19T13:36:21;100354.17;;;11.61;39.21